createdAt,value
2022-12-23T00:01:50.947Z,9.93
2022-12-23T00:06:53.945Z,9.87
2022-12-23T00:12:15.963Z,15.53
2022-12-23T00:17:22.524Z,10.53
2022-12-23T00:22:46.092Z,11.37
2022-12-23T00:28:01.808Z,10.27
2022-12-23T00:33:05.390Z,10.57
2022-12-23T00:38:08.472Z,11.20
2022-12-23T00:43:11.571Z,13.17
2022-12-23T00:48:33.349Z,12.53
2022-12-23T00:53:36.485Z,15.57
2022-12-23T00:58:39.676Z,14.67
2022-12-23T01:04:01.402Z,14.00
2022-12-23T01:09:05.558Z,16.93
2022-12-23T01:14:09.683Z,17.63
2022-12-23T01:19:13.220Z,16.77
2022-12-23T01:24:16.411Z,14.07
2022-12-23T01:29:19.572Z,14.53
2022-12-23T01:34:22.677Z,16.07
2022-12-23T01:39:25.979Z,17.40
2022-12-23T01:44:50.280Z,16.67
2022-12-23T01:49:59.342Z,18.33
2022-12-23T01:55:02.310Z,20.03
2022-12-23T02:00:24.734Z,21.13
2022-12-23T02:05:28.201Z,20.07
2022-12-23T02:10:45.808Z,18.23
2022-12-23T02:16:10.728Z,18.70
2022-12-23T02:21:37.652Z,21.30
2022-12-23T02:27:19.498Z,20.20
2022-12-23T02:32:37.681Z,19.50
2022-12-23T02:37:44.374Z,20.57
2022-12-23T02:42:50.559Z,21.40
2022-12-23T02:47:58.560Z,18.40
2022-12-23T02:53:06.538Z,23.53
2022-12-23T02:58:11.774Z,19.37
2022-12-23T03:03:17.640Z,20.87
2022-12-23T03:08:27.396Z,22.20
2022-12-23T03:13:42.849Z,22.70
2022-12-23T03:19:16.201Z,19.97
2022-12-23T03:24:36.241Z,19.93
2022-12-23T03:30:10.345Z,23.23
2022-12-23T03:35:16.723Z,18.07
2022-12-23T03:40:30.224Z,16.80
2022-12-23T03:45:41.642Z,19.87
2022-12-23T03:50:49.259Z,20.93
2022-12-23T03:56:07.021Z,23.80
2022-12-23T04:01:26.248Z,21.37
2022-12-23T04:06:35.568Z,18.50
2022-12-23T04:11:38.625Z,19.73
2022-12-23T04:16:41.494Z,20.07
2022-12-23T04:21:44.480Z,20.30
2022-12-23T04:26:47.565Z,22.87
2022-12-23T04:31:50.629Z,23.10
2022-12-23T04:36:53.816Z,19.40
2022-12-23T04:41:56.945Z,23.83
2022-12-23T04:47:00.158Z,22.33
2022-12-23T04:52:03.175Z,24.60
2022-12-23T04:57:06.299Z,37.13
2022-12-23T05:02:09.729Z,39.03
2022-12-23T05:07:12.929Z,42.87
2022-12-23T05:12:16.573Z,46.40
2022-12-23T05:17:19.758Z,36.03
2022-12-23T05:22:22.649Z,36.53
2022-12-23T05:27:25.571Z,37.57
2022-12-23T05:32:28.563Z,29.83
2022-12-23T05:37:31.629Z,29.13
2022-12-23T05:42:34.637Z,27.93
2022-12-23T05:47:37.954Z,28.93
2022-12-23T05:52:40.921Z,30.67
2022-12-23T05:57:43.803Z,25.47
2022-12-23T06:02:53.302Z,26.63
2022-12-23T06:07:57.078Z,22.07
2022-12-23T06:13:00.003Z,25.83
2022-12-23T06:18:05.334Z,23.37
2022-12-23T06:23:08.654Z,23.03
2022-12-23T06:28:11.614Z,26.00
2022-12-23T06:33:14.586Z,20.20
2022-12-23T06:38:17.738Z,22.93
2022-12-23T06:43:20.678Z,26.40
2022-12-23T06:48:23.616Z,23.57
2022-12-23T06:53:26.835Z,23.50
2022-12-23T06:58:30.240Z,23.47
2022-12-23T07:03:33.312Z,23.43
2022-12-23T07:08:36.416Z,23.00
2022-12-23T07:13:39.557Z,22.60
2022-12-23T07:18:42.817Z,20.43
2022-12-23T07:23:45.696Z,20.33
2022-12-23T07:28:49.138Z,20.20
2022-12-23T07:33:52.066Z,21.13
2022-12-23T07:38:55.065Z,18.57
2022-12-23T07:43:58.150Z,18.90
2022-12-23T07:49:01.467Z,15.87
2022-12-23T07:54:04.866Z,20.00
2022-12-23T07:59:08.225Z,18.07
2022-12-23T08:04:11.389Z,19.90
2022-12-23T08:09:14.404Z,18.23
2022-12-23T08:14:17.765Z,18.20
2022-12-23T08:19:20.976Z,19.07
2022-12-23T08:24:24.080Z,21.10
2022-12-23T08:29:29.959Z,19.23
2022-12-23T08:34:37.248Z,17.93
2022-12-23T08:39:40.261Z,21.73
2022-12-23T08:44:43.431Z,31.03
2022-12-23T08:49:46.425Z,30.87
2022-12-23T08:54:49.990Z,29.23
2022-12-23T08:59:53.146Z,22.60
2022-12-23T09:04:56.375Z,32.47
2022-12-23T09:09:59.401Z,29.07
2022-12-23T09:15:02.285Z,21.27
2022-12-23T09:20:05.818Z,26.97
2022-12-23T09:25:09.251Z,26.00
2022-12-23T09:30:12.477Z,25.93
2022-12-23T09:35:15.706Z,20.87
2022-12-23T09:40:20.397Z,22.77
2022-12-23T09:45:40.373Z,27.00
2022-12-23T09:50:44.008Z,38.10
2022-12-23T09:56:05.941Z,26.03
2022-12-23T10:01:30.727Z,22.43
2022-12-23T10:06:34.206Z,26.17
2022-12-23T10:11:41.218Z,35.20
2022-12-23T10:16:50.585Z,30.03
2022-12-23T10:21:59.950Z,24.20
2022-12-23T10:27:17.856Z,26.17
2022-12-23T10:32:57.381Z,24.60
2022-12-23T10:38:18.582Z,23.13
2022-12-23T10:43:52.102Z,27.60
2022-12-23T10:49:26.994Z,26.67
2022-12-23T10:54:35.079Z,24.47
2022-12-23T10:59:38.342Z,21.63
2022-12-23T11:04:46.787Z,21.80
2022-12-23T11:09:57.777Z,24.63
2022-12-23T11:15:03.231Z,26.17
2022-12-23T11:20:12.388Z,20.40
2022-12-23T11:25:18.575Z,23.53
2022-12-23T11:30:29.175Z,25.17
2022-12-23T11:35:34.347Z,26.00
2022-12-23T11:40:38.783Z,25.43
2022-12-23T11:45:42.019Z,31.33
2022-12-23T11:50:45.240Z,34.20
2022-12-23T11:56:12.859Z,27.07
2022-12-23T12:01:21.979Z,25.70
2022-12-23T12:06:26.385Z,33.17
2022-12-23T12:11:49.218Z,24.63
2022-12-23T12:16:58.264Z,25.30
2022-12-23T12:22:03.900Z,27.80
2022-12-23T12:27:08.364Z,27.37
2022-12-23T12:32:46.565Z,29.07
2022-12-23T12:38:16.963Z,30.73
2022-12-23T12:43:35.620Z,28.87
2022-12-23T12:48:53.664Z,24.43
2022-12-23T12:54:05.526Z,25.47
2022-12-23T12:59:15.552Z,27.83
2022-12-23T13:04:39.875Z,28.57
2022-12-23T13:09:45.741Z,31.40
2022-12-23T13:15:14.735Z,30.93
2022-12-23T13:20:49.093Z,32.40
2022-12-23T13:25:59.289Z,31.90
2022-12-23T13:31:11.672Z,31.00
2022-12-23T13:36:26.885Z,32.30
2022-12-23T13:41:35.919Z,38.93
2022-12-23T13:46:55.490Z,35.10
2022-12-23T13:52:15.718Z,34.10
2022-12-23T13:57:34.088Z,37.07
2022-12-23T14:02:37.023Z,38.63
2022-12-23T14:07:45.039Z,40.50
2022-12-23T14:12:48.449Z,42.33
2022-12-23T14:18:09.796Z,39.03
2022-12-23T14:23:31.772Z,40.60
2022-12-23T14:28:50.704Z,33.67
2022-12-23T14:33:53.802Z,30.73
2022-12-23T14:39:32.956Z,83.03
2022-12-23T14:44:36.215Z,46.00
2022-12-23T14:49:44.211Z,42.63
2022-12-23T14:55:20.750Z,41.27
2022-12-23T15:00:10.684Z,39.20
2022-12-23T15:05:14.012Z,52.57
2022-12-23T15:10:23.463Z,43.13
2022-12-23T15:15:29.017Z,36.83
2022-12-23T15:20:33.210Z,43.33
2022-12-23T15:25:40.533Z,54.63
2022-12-23T15:30:54.986Z,42.13
2022-12-23T15:36:01.923Z,37.03
2022-12-23T15:41:14.016Z,65.73
2022-12-23T15:46:29.163Z,37.77
2022-12-23T15:52:07.222Z,30.23
2022-12-23T15:56:59.641Z,37.37
2022-12-23T16:08:08.698Z,99.20
2022-12-23T16:13:19.547Z,79.33
2022-12-23T16:18:25.885Z,38.30
2022-12-23T16:23:34.151Z,47.93
2022-12-23T16:28:42.689Z,30.07
2022-12-23T16:33:50.106Z,22.37
2022-12-23T16:38:59.001Z,20.00
2022-12-23T16:44:02.354Z,36.07
2022-12-23T16:49:08.441Z,56.90
2022-12-23T16:54:17.261Z,58.90
2022-12-23T16:59:21.281Z,25.87
2022-12-23T17:04:24.088Z,25.23
2022-12-23T17:09:27.655Z,18.70
2022-12-23T17:14:31.432Z,15.50
2022-12-23T17:19:34.544Z,9.03
2022-12-23T17:24:37.862Z,12.30
2022-12-23T17:29:41.876Z,58.27
2022-12-23T17:34:44.907Z,33.40
2022-12-23T17:39:47.866Z,20.50
2022-12-23T17:44:51.296Z,18.70
2022-12-23T17:49:54.410Z,20.37
2022-12-23T17:54:58.019Z,8.23
2022-12-23T18:00:00.924Z,10.03
2022-12-23T18:05:20.926Z,11.87
2022-12-23T18:10:27.146Z,12.47
2022-12-23T18:15:36.058Z,9.43
2022-12-23T18:20:40.000Z,10.90
2022-12-23T18:25:42.954Z,11.63
2022-12-23T18:30:45.997Z,16.47
2022-12-23T18:35:49.793Z,12.60
2022-12-23T18:40:54.579Z,25.27
2022-12-23T18:46:00.098Z,19.80
2022-12-23T18:51:03.378Z,13.53
2022-12-23T18:56:06.747Z,12.93
2022-12-23T19:01:16.816Z,10.60
2022-12-23T19:06:20.235Z,9.70
2022-12-23T19:11:23.131Z,10.90
2022-12-23T19:16:26.322Z,6.90
2022-12-23T19:21:29.624Z,13.83
2022-12-23T19:26:33.028Z,13.90
2022-12-23T19:31:36.285Z,11.77
2022-12-23T19:36:40.330Z,30.03
2022-12-23T19:41:43.797Z,25.37
2022-12-23T19:46:46.915Z,18.17
2022-12-23T19:51:50.026Z,25.63
2022-12-23T19:56:53.152Z,13.30
2022-12-23T20:01:57.202Z,16.10
2022-12-23T20:07:00.401Z,20.77
2022-12-23T20:12:03.864Z,14.43
2022-12-23T20:17:12.252Z,19.50
2022-12-23T20:22:15.246Z,46.03
2022-12-23T20:27:24.237Z,23.93
2022-12-23T20:32:31.156Z,19.03
2022-12-23T20:37:34.605Z,31.73
2022-12-23T20:42:40.835Z,21.93
2022-12-23T20:47:44.184Z,22.30
2022-12-23T20:52:47.653Z,20.93
2022-12-23T20:57:51.306Z,19.30
2022-12-23T21:02:54.242Z,19.80
2022-12-23T21:07:57.366Z,23.60
2022-12-23T21:13:00.456Z,23.60
2022-12-23T21:18:04.144Z,34.97
2022-12-23T21:23:07.536Z,26.77
2022-12-23T21:28:10.408Z,24.87
2022-12-23T21:33:14.039Z,25.00
2022-12-23T21:38:16.818Z,26.50
2022-12-23T21:43:20.011Z,25.37
2022-12-23T21:48:22.999Z,30.13
2022-12-23T21:53:26.224Z,25.70
2022-12-23T21:58:30.090Z,23.17
2022-12-23T22:03:36.965Z,19.27
2022-12-23T22:08:40.544Z,20.23
2022-12-23T22:13:44.424Z,16.30
2022-12-23T22:18:49.772Z,14.33
2022-12-23T22:23:53.881Z,19.20
2022-12-23T22:28:59.472Z,65.57
2022-12-23T22:34:02.848Z,39.10
2022-12-23T22:39:07.827Z,78.10
2022-12-23T22:44:13.472Z,103.13
2022-12-23T22:49:17.341Z,60.73
2022-12-23T22:54:20.383Z,25.50
2022-12-23T22:59:25.650Z,22.00
2022-12-23T23:04:28.711Z,70.33
2022-12-23T23:09:31.608Z,34.47
2022-12-23T23:14:52.590Z,25.30
2022-12-23T23:19:55.637Z,21.50
2022-12-23T23:24:58.647Z,19.50
2022-12-23T23:30:01.501Z,22.63
2022-12-23T23:35:10.526Z,16.43
2022-12-23T23:40:13.956Z,16.87
2022-12-23T23:45:17.132Z,17.77
2022-12-23T23:50:20.438Z,82.40
2022-12-23T23:55:23.576Z,36.50
